Time,TemperatureF,DewpointF,PressureIn,WindDirection,WindDirectionDegrees,WindSpeedMPH,WindSpeedGustMPH,Humidity,HourlyPrecipIn,Conditions,Clouds,dailyrainin,SolarRadiationWatts/m^2,SoftwareType,DateUTC
2013-04-05 00:00:00,38.0,29.0,-100.00,NNW,337,0.0,-999.0,70,-99.99,,,-99.99,0.000000,,2013-04-05 04:00:00,
2013-04-05 00:43:00,38.0,29.0,-100.00,NNW,337,0.0,-999.0,70,-99.99,,,-99.99,0.000000,,2013-04-05 04:43:00,
2013-04-05 00:52:00,38.0,29.0,-100.00,NNW,337,0.0,-999.0,70,-99.99,,,-99.99,0.000000,,2013-04-05 04:52:00,
2013-04-05 01:00:00,36.0,30.0,-100.00,West,270,1.0,-999.0,76,-99.99,,,-99.99,0.000000,,2013-04-05 05:00:00,
2013-04-05 01:42:00,36.0,30.0,-100.00,West,270,1.0,-999.0,76,-99.99,,,-99.99,0.000000,,2013-04-05 05:42:00,
2013-04-05 01:53:00,36.0,30.0,-100.00,West,270,1.0,-999.0,76,-99.99,,,-99.99,0.000000,,2013-04-05 05:53:00,
2013-04-05 03:00:00,34.0,30.0,-100.00,East,90,6.0,-999.0,83,-99.99,,,-99.99,0.000000,,2013-04-05 07:00:00,
2013-04-05 03:42:00,34.0,30.0,-100.00,East,90,6.0,-999.0,83,-99.99,,,-99.99,0.000000,,2013-04-05 07:42:00,
2013-04-05 03:53:00,34.0,30.0,-100.00,East,90,6.0,-999.0,83,-99.99,,,-99.99,0.000000,,2013-04-05 07:53:00,
2013-04-05 04:00:00,32.0,29.0,-100.00,West,270,4.0,-999.0,87,-99.99,,,-99.99,0.000000,,2013-04-05 08:00:00,
2013-04-05 04:43:00,32.0,29.0,-100.00,West,270,4.0,-999.0,87,-99.99,,,-99.99,0.000000,,2013-04-05 08:43:00,
2013-04-05 04:52:00,32.0,29.0,-100.00,West,270,4.0,-999.0,87,-99.99,,,-99.99,0.000000,,2013-04-05 08:52:00,
2013-04-05 05:00:00,30.0,27.0,-100.00,NNW,337,1.0,-999.0,89,-99.99,,,-99.99,0.000000,,2013-04-05 09:00:00,
2013-04-05 05:43:00,30.0,27.0,-100.00,NNW,337,1.0,-999.0,89,-99.99,,,-99.99,0.000000,,2013-04-05 09:43:00,
2013-04-05 05:53:00,30.0,27.0,-100.00,NNW,337,1.0,-999.0,89,-99.99,,,-99.99,0.000000,,2013-04-05 09:53:00,
2013-04-05 06:00:00,30.0,25.0,-100.00,NW,315,4.0,-999.0,81,-99.99,,,-99.99,0.000000,,2013-04-05 10:00:00,
2013-04-05 06:43:00,30.0,25.0,-100.00,NW,315,4.0,-999.0,81,-99.99,,,-99.99,0.000000,,2013-04-05 10:43:00,
2013-04-05 06:53:00,30.0,25.0,-100.00,NW,315,4.0,-999.0,81,-99.99,,,-99.99,0.000000,,2013-04-05 10:53:00,
2013-04-05 07:00:00,29.0,24.0,-100.00,WNW,292,4.0,-999.0,79,-99.99,,,-99.99,0.000000,,2013-04-05 11:00:00,
2013-04-05 07:42:00,29.0,24.0,-100.00,WNW,292,4.0,-999.0,79,-99.99,,,-99.99,0.000000,,2013-04-05 11:42:00,
2013-04-05 07:52:00,29.0,24.0,-100.00,WNW,292,4.0,-999.0,79,-99.99,,,-99.99,0.000000,,2013-04-05 11:52:00,
2013-04-05 09:00:00,34.0,24.0,-100.00,WNW,292,9.0,-999.0,65,-99.99,,,-99.99,157.759995,,2013-04-05 13:00:00,
2013-04-05 09:43:00,34.0,24.0,-100.00,WNW,292,9.0,-999.0,65,-99.99,,,-99.99,157.759995,,2013-04-05 13:43:00,
2013-04-05 09:53:00,34.0,24.0,-100.00,WNW,292,9.0,-999.0,65,-99.99,,,-99.99,157.759995,,2013-04-05 13:53:00,
2013-04-05 10:00:00,36.0,22.0,-100.00,West,270,12.0,-999.0,55,-99.99,,,-99.99,317.839996,,2013-04-05 14:00:00,
2013-04-05 10:43:00,36.0,22.0,-100.00,West,270,12.0,-999.0,55,-99.99,,,-99.99,317.839996,,2013-04-05 14:43:00,
2013-04-05 10:55:00,36.0,22.0,-100.00,West,270,12.0,-999.0,55,-99.99,,,-99.99,317.839996,,2013-04-05 14:55:00,
2013-04-05 11:00:00,39.0,20.0,-100.00,South,180,12.0,-999.0,46,-99.99,,,-99.99,480.239990,,2013-04-05 15:00:00,
2013-04-05 11:43:00,39.0,20.0,-100.00,South,180,12.0,-999.0,46,-99.99,,,-99.99,480.239990,,2013-04-05 15:43:00,
2013-04-05 11:55:00,39.0,20.0,-100.00,South,180,12.0,-999.0,46,-99.99,,,-99.99,480.239990,,2013-04-05 15:55:00,
2013-04-05 12:00:00,41.0,19.0,-100.00,SE,135,12.0,-999.0,41,-99.99,,,-99.99,641.479980,,2013-04-05 16:00:00,
2013-04-05 12:43:00,41.0,19.0,-100.00,SE,135,12.0,-999.0,41,-99.99,,,-99.99,641.479980,,2013-04-05 16:43:00,
2013-04-05 12:53:00,41.0,19.0,-100.00,SE,135,12.0,-999.0,41,-99.99,,,-99.99,641.479980,,2013-04-05 16:53:00,
2013-04-05 13:00:00,43.0,19.0,-100.00,South,180,10.0,-999.0,37,-99.99,,,-99.99,730.799988,,2013-04-05 17:00:00,
2013-04-05 13:46:00,43.0,19.0,-100.00,South,180,10.0,-999.0,37,-99.99,,,-99.99,730.799988,,2013-04-05 17:46:00,
2013-04-05 13:53:00,43.0,19.0,-100.00,South,180,10.0,-999.0,37,-99.99,,,-99.99,730.799988,,2013-04-05 17:53:00,
2013-04-05 14:00:00,45.0,18.0,-100.00,South,180,8.0,-999.0,34,-99.99,,,-99.99,783.000000,,2013-04-05 18:00:00,
2013-04-05 14:43:00,45.0,18.0,-100.00,South,180,8.0,-999.0,34,-99.99,,,-99.99,783.000000,,2013-04-05 18:43:00,
2013-04-05 14:53:00,45.0,18.0,-100.00,South,180,8.0,-999.0,34,-99.99,,,-99.99,783.000000,,2013-04-05 18:53:00,
2013-04-05 15:00:00,46.0,17.0,-100.00,SSW,202,8.0,-999.0,30,-99.99,,,-99.99,760.960022,,2013-04-05 19:00:00,
2013-04-05 15:43:00,46.0,17.0,-100.00,SSW,202,8.0,-999.0,30,-99.99,,,-99.99,760.960022,,2013-04-05 19:43:00,
2013-04-05 15:53:00,46.0,17.0,-100.00,SSW,202,8.0,-999.0,30,-99.99,,,-99.99,760.960022,,2013-04-05 19:53:00,
2013-04-05 16:00:00,47.0,17.0,-100.00,SSW,202,7.0,-999.0,29,-99.99,,,-99.99,683.239990,,2013-04-05 20:00:00,
2013-04-05 16:33:00,47.0,17.0,-100.00,SSW,202,7.0,-999.0,29,-99.99,,,-99.99,683.239990,,2013-04-05 20:33:00,
2013-04-05 16:43:00,47.0,17.0,-100.00,SSW,202,7.0,-999.0,29,-99.99,,,-99.99,683.239990,,2013-04-05 20:43:00,
2013-04-05 16:53:00,47.0,17.0,-100.00,SSW,202,7.0,-999.0,29,-99.99,,,-99.99,683.239990,,2013-04-05 20:53:00,
2013-04-05 17:00:00,47.0,18.0,-100.00,ESE,112,6.0,-999.0,30,-99.99,,,-99.99,533.599976,,2013-04-05 21:00:00,
2013-04-05 17:44:00,47.0,18.0,-100.00,ESE,112,6.0,-999.0,30,-99.99,,,-99.99,533.599976,,2013-04-05 21:44:00,
2013-04-05 17:55:00,47.0,18.0,-100.00,ESE,112,6.0,-999.0,30,-99.99,,,-99.99,533.599976,,2013-04-05 21:55:00,
2013-04-05 18:00:00,47.0,19.0,-100.00,NE,45,7.0,-999.0,32,-99.99,,,-99.99,415.279999,,2013-04-05 22:00:00,
2013-04-05 18:44:00,47.0,19.0,-100.00,NE,45,7.0,-999.0,32,-99.99,,,-99.99,415.279999,,2013-04-05 22:44:00,
2013-04-05 18:53:00,47.0,19.0,-100.00,NE,45,7.0,-999.0,32,-99.99,,,-99.99,415.279999,,2013-04-05 22:53:00,
2013-04-05 19:00:00,44.0,20.0,-100.00,NE,45,7.0,-999.0,38,-99.99,,,-99.99,198.360001,,2013-04-05 23:00:00,
2013-04-05 19:43:00,44.0,20.0,-100.00,NE,45,7.0,-999.0,38,-99.99,,,-99.99,198.360001,,2013-04-05 23:43:00,
2013-04-05 19:53:00,44.0,20.0,-100.00,NE,45,7.0,-999.0,38,-99.99,,,-99.99,198.360001,,2013-04-05 23:53:00,
2013-04-05 21:00:00,34.0,26.0,-100.00,ENE,67,5.0,-999.0,72,-99.99,,,-99.99,1.160000,,2013-04-06 01:00:00,
2013-04-05 21:43:00,34.0,26.0,-100.00,ENE,67,5.0,-999.0,72,-99.99,,,-99.99,1.160000,,2013-04-06 01:43:00,
2013-04-05 21:53:00,34.0,26.0,-100.00,ENE,67,5.0,-999.0,72,-99.99,,,-99.99,1.160000,,2013-04-06 01:53:00,
2013-04-05 22:00:00,31.0,26.0,-100.00,WSW,247,4.0,-999.0,81,-99.99,,,-99.99,0.000000,,2013-04-06 02:00:00,
2013-04-05 22:43:00,31.0,26.0,-100.00,WSW,247,4.0,-999.0,81,-99.99,,,-99.99,0.000000,,2013-04-06 02:43:00,
2013-04-05 22:53:00,31.0,26.0,-100.00,WSW,247,4.0,-999.0,81,-99.99,,,-99.99,0.000000,,2013-04-06 02:53:00,
2013-04-05 23:00:00,29.0,25.0,-100.00,ESE,112,4.0,-999.0,84,-99.99,,,-99.99,0.000000,,2013-04-06 03:00:00,
2013-04-05 23:43:00,29.0,25.0,-100.00,ESE,112,4.0,-999.0,84,-99.99,,,-99.99,0.000000,,2013-04-06 03:43:00,
2013-04-05 23:55:00,29.0,25.0,-100.00,ESE,112,4.0,-999.0,84,-99.99,,,-99.99,0.000000,,2013-04-06 03:55:00,